createdAt,value
2019-02-25T00:00:02.815Z,-0.80
2019-02-25T00:02:31.615Z,-0.80
2019-02-25T00:04:59.447Z,-0.80
2019-02-25T00:07:27.304Z,-0.80
2019-02-25T00:09:55.260Z,-0.80
2019-02-25T00:12:23.224Z,-0.90
2019-02-25T00:14:51.066Z,-0.90
2019-02-25T00:17:18.944Z,-0.90
2019-02-25T00:19:46.825Z,-0.90
2019-02-25T00:22:14.705Z,-0.90
2019-02-25T00:24:42.607Z,-1.00
2019-02-25T00:27:10.467Z,-1.00
2019-02-25T00:29:38.283Z,-1.00
2019-02-25T00:32:06.187Z,-1.10
2019-02-25T00:34:34.034Z,-1.10
2019-02-25T00:37:01.891Z,-1.10
2019-02-25T00:39:29.784Z,-1.10
2019-02-25T00:41:57.620Z,-1.10
2019-02-25T00:44:25.482Z,-1.20
2019-02-25T00:46:53.319Z,-1.10
2019-02-25T00:49:21.201Z,-1.10
2019-02-25T00:51:49.044Z,-1.20
2019-02-25T00:54:16.926Z,-1.20
2019-02-25T00:56:44.783Z,-1.20
2019-02-25T00:59:12.621Z,-1.20
2019-02-25T01:01:40.457Z,-1.10
2019-02-25T01:04:08.299Z,-1.20
2019-02-25T01:06:36.147Z,-1.20
2019-02-25T01:09:04.926Z,-1.30
2019-02-25T01:11:32.871Z,-1.30
2019-02-25T01:14:00.707Z,-1.30
2019-02-25T01:16:28.579Z,-1.30
2019-02-25T01:18:56.515Z,-1.40
2019-02-25T01:21:24.393Z,-1.40
2019-02-25T01:23:52.284Z,-1.40
2019-02-25T01:26:20.114Z,-1.40
2019-02-25T01:28:47.992Z,-1.40
2019-02-25T01:31:15.859Z,-1.40
2019-02-25T01:33:43.717Z,-1.40
2019-02-25T01:36:11.582Z,-1.40
2019-02-25T01:38:39.439Z,-1.40
2019-02-25T01:41:07.272Z,-1.50
2019-02-25T01:43:35.132Z,-1.40
2019-02-25T01:46:02.993Z,-1.50
2019-02-25T01:48:30.894Z,-1.50
2019-02-25T01:50:58.742Z,-1.50
2019-02-25T01:53:26.603Z,-1.60
2019-02-25T01:55:54.475Z,-1.50
2019-02-25T01:58:22.361Z,-1.50
2019-02-25T02:00:50.288Z,-1.60
2019-02-25T02:03:18.140Z,-1.60
2019-02-25T02:05:45.998Z,-1.60
2019-02-25T02:08:13.828Z,-1.70
2019-02-25T02:10:41.695Z,-1.70
2019-02-25T02:13:14.116Z,-1.70
2019-02-25T02:15:39.140Z,-1.70
2019-02-25T02:18:07.009Z,-1.70
2019-02-25T02:20:34.892Z,-1.80
2019-02-25T02:23:02.752Z,-1.80
2019-02-25T02:25:30.699Z,-1.80
2019-02-25T02:27:58.542Z,-1.80
2019-02-25T02:30:26.425Z,-1.80
2019-02-25T02:32:54.277Z,-1.80
2019-02-25T02:35:22.147Z,-1.80
2019-02-25T02:37:49.976Z,-1.90
2019-02-25T02:40:17.837Z,-1.90
2019-02-25T02:42:45.763Z,-1.90
2019-02-25T02:45:13.589Z,-1.90
2019-02-25T02:47:41.446Z,-1.90
2019-02-25T02:50:09.326Z,-1.90
2019-02-25T02:52:37.197Z,-1.90
2019-02-25T02:55:05.070Z,-1.90
2019-02-25T02:57:32.932Z,-1.90
2019-02-25T03:00:00.782Z,-1.90
2019-02-25T03:02:28.658Z,-2.00
2019-02-25T03:04:56.490Z,-2.00
2019-02-25T03:07:24.467Z,-2.00
2019-02-25T03:09:52.306Z,-2.00
2019-02-25T03:12:20.165Z,-2.00
2019-02-25T03:14:48.061Z,-2.00
2019-02-25T03:17:15.901Z,-2.00
2019-02-25T03:19:43.792Z,-2.00
2019-02-25T03:22:11.631Z,-2.00
2019-02-25T03:24:39.518Z,-2.00
2019-02-25T03:27:07.366Z,-2.00
2019-02-25T03:29:35.249Z,-2.00
2019-02-25T03:32:03.099Z,-2.00
2019-02-25T03:34:30.951Z,-2.10
2019-02-25T03:36:58.800Z,-2.10
2019-02-25T03:39:26.653Z,-2.10
2019-02-25T03:41:54.500Z,-2.10
2019-02-25T03:44:22.404Z,-2.10
2019-02-25T03:46:50.282Z,-2.10
2019-02-25T03:49:18.208Z,-2.10
2019-02-25T03:51:46.034Z,-2.20
2019-02-25T03:54:13.935Z,-2.10
2019-02-25T03:56:41.791Z,-2.10
2019-02-25T03:59:09.664Z,-2.10
2019-02-25T04:01:37.511Z,-2.20
2019-02-25T04:04:05.354Z,-2.20
2019-02-25T04:06:33.208Z,-2.20
2019-02-25T04:09:01.073Z,-2.20
2019-02-25T04:11:28.942Z,-2.20
2019-02-25T04:13:56.787Z,-2.20
2019-02-25T04:16:24.647Z,-2.20
2019-02-25T04:18:52.546Z,-2.20
2019-02-25T04:21:20.441Z,-2.30
2019-02-25T04:23:48.286Z,-2.30
2019-02-25T04:26:16.168Z,-2.30
2019-02-25T04:28:44.036Z,-2.30
2019-02-25T04:31:11.923Z,-2.30
2019-02-25T04:33:39.844Z,-2.30
2019-02-25T04:36:07.702Z,-2.30
2019-02-25T04:38:35.566Z,-2.40
2019-02-25T04:41:03.438Z,-2.40
2019-02-25T04:43:31.282Z,-2.40
2019-02-25T04:45:59.278Z,-2.40
2019-02-25T04:48:27.187Z,-2.40
2019-02-25T04:50:55.059Z,-2.40
2019-02-25T04:53:22.912Z,-2.50
2019-02-25T04:55:50.756Z,-2.50
2019-02-25T04:58:18.605Z,-2.40
2019-02-25T05:00:46.469Z,-2.50
2019-02-25T05:03:14.328Z,-2.50
2019-02-25T05:05:42.204Z,-2.50
2019-02-25T05:08:10.051Z,-2.50
2019-02-25T05:10:37.906Z,-2.50
2019-02-25T05:13:06.440Z,-2.50
2019-02-25T05:15:35.249Z,-2.40
2019-02-25T05:18:03.103Z,-2.50
2019-02-25T05:20:30.986Z,-2.50
2019-02-25T05:22:58.904Z,-2.50
2019-02-25T05:25:26.758Z,-2.60
2019-02-25T05:27:54.627Z,-2.60
2019-02-25T05:30:22.593Z,-2.60
2019-02-25T05:32:50.537Z,-2.60
2019-02-25T05:35:18.378Z,-2.60
2019-02-25T05:37:46.244Z,-2.60
2019-02-25T05:40:14.110Z,-2.60
2019-02-25T05:42:41.990Z,-2.60
2019-02-25T05:45:09.856Z,-2.60
2019-02-25T05:47:37.725Z,-2.60
2019-02-25T05:50:05.557Z,-2.60
2019-02-25T05:52:33.427Z,-2.70
2019-02-25T05:55:01.280Z,-2.70
2019-02-25T05:57:29.164Z,-2.70
2019-02-25T05:59:57.044Z,-2.60
2019-02-25T06:02:24.984Z,-2.60
2019-02-25T06:04:52.815Z,-2.60
2019-02-25T06:07:20.691Z,-2.70
2019-02-25T06:09:48.532Z,-2.70
2019-02-25T06:12:16.410Z,-2.70
2019-02-25T06:14:44.291Z,-2.70
2019-02-25T06:17:12.180Z,-2.70
2019-02-25T06:19:40.037Z,-2.70
2019-02-25T06:22:07.958Z,-2.70
2019-02-25T06:24:35.806Z,-2.70
2019-02-25T06:27:03.669Z,-2.70
2019-02-25T06:29:31.575Z,-2.70
2019-02-25T06:31:59.393Z,-2.70
2019-02-25T06:34:27.520Z,-2.70
2019-02-25T06:36:55.359Z,-2.70
2019-02-25T06:39:23.229Z,-2.70
2019-02-25T06:41:51.088Z,-2.60
2019-02-25T06:44:18.994Z,-2.70
2019-02-25T06:46:48.691Z,-2.70
2019-02-25T06:49:16.569Z,-2.70
2019-02-25T06:51:44.417Z,-2.70
2019-02-25T06:54:12.264Z,-2.70
2019-02-25T06:56:40.126Z,-2.70
2019-02-25T06:59:08.106Z,-2.70
2019-02-25T07:01:35.994Z,-2.70
2019-02-25T07:04:28.928Z,-2.70
2019-02-25T07:07:15.797Z,-2.60
2019-02-25T07:09:57.384Z,-2.60
2019-02-25T07:12:30.134Z,-2.50
2019-02-25T07:15:12.525Z,-2.50
2019-02-25T07:17:48.893Z,-2.50
2019-02-25T07:20:50.899Z,-2.50
2019-02-25T07:23:31.898Z,-2.50
2019-02-25T07:26:21.627Z,-2.40
2019-02-25T07:29:17.663Z,-2.40
2019-02-25T07:32:10.412Z,-2.30
2019-02-25T07:34:59.715Z,-2.30
2019-02-25T07:37:51.640Z,-2.30
2019-02-25T07:40:36.969Z,-2.30
2019-02-25T07:43:23.003Z,-2.30
2019-02-25T07:46:15.445Z,-2.30
2019-02-25T07:48:53.139Z,-2.30
2019-02-25T07:51:45.853Z,-2.30
2019-02-25T07:54:31.449Z,-2.20
2019-02-25T07:57:20.953Z,-2.20
2019-02-25T08:00:01.626Z,-2.10
2019-02-25T08:02:44.818Z,-2.00
2019-02-25T08:05:18.166Z,-2.00
2019-02-25T08:08:03.652Z,-1.90
2019-02-25T08:10:52.997Z,-1.80
2019-02-25T08:13:26.684Z,-1.70
2019-02-25T08:16:13.274Z,-1.60
2019-02-25T08:19:06.036Z,-1.50
2019-02-25T08:21:59.166Z,-1.30
2019-02-25T08:24:58.249Z,-1.10
2019-02-25T08:27:51.298Z,-1.00
2019-02-25T08:30:41.003Z,-0.80
2019-02-25T08:33:33.882Z,-0.60
2019-02-25T08:36:18.968Z,-0.40
2019-02-25T08:39:04.153Z,-0.20
2019-02-25T08:41:35.922Z,0.00
2019-02-25T08:44:12.247Z,0.10
2019-02-25T08:46:59.158Z,0.30
2019-02-25T08:49:33.300Z,0.50
2019-02-25T08:52:01.218Z,0.60
2019-02-25T08:54:29.241Z,0.80
2019-02-25T08:56:57.125Z,1.00
2019-02-25T08:59:25.074Z,1.10
2019-02-25T09:01:53.078Z,1.30
2019-02-25T09:04:20.903Z,1.50
2019-02-25T09:06:48.727Z,1.70
2019-02-25T09:09:16.598Z,1.90
2019-02-25T09:11:44.527Z,2.10
2019-02-25T09:14:12.490Z,2.40
2019-02-25T09:16:40.340Z,2.50
2019-02-25T09:19:08.226Z,2.80
2019-02-25T09:21:36.073Z,3.10
2019-02-25T09:24:03.987Z,3.30
2019-02-25T09:26:31.874Z,3.60
2019-02-25T09:28:59.756Z,3.90
2019-02-25T09:31:27.631Z,4.20
2019-02-25T09:33:55.564Z,4.50
2019-02-25T09:36:25.534Z,4.80
2019-02-25T09:38:53.026Z,5.10
2019-02-25T09:41:29.448Z,5.40
2019-02-25T09:43:50.566Z,5.70
2019-02-25T09:46:18.549Z,6.00
2019-02-25T09:48:46.512Z,6.30
2019-02-25T09:51:14.337Z,6.60
2019-02-25T09:53:42.510Z,6.70
2019-02-25T09:56:10.393Z,6.90
2019-02-25T09:58:38.331Z,7.20
2019-02-25T10:01:06.179Z,7.50
2019-02-25T10:03:34.061Z,7.70
2019-02-25T10:06:01.968Z,7.90
2019-02-25T10:08:29.837Z,8.20
2019-02-25T10:10:57.867Z,8.40
2019-02-25T10:13:25.742Z,8.60
2019-02-25T10:15:53.592Z,8.80
2019-02-25T10:18:21.473Z,9.00
2019-02-25T10:20:49.303Z,9.10
2019-02-25T10:23:17.185Z,9.30
2019-02-25T10:25:45.022Z,9.40
2019-02-25T10:28:12.846Z,9.60
2019-02-25T10:30:40.731Z,9.70
2019-02-25T10:33:08.591Z,9.80
2019-02-25T10:35:36.473Z,9.90
2019-02-25T10:38:04.372Z,10.10
2019-02-25T10:40:32.240Z,10.30
2019-02-25T10:43:00.140Z,10.50
2019-02-25T10:45:27.991Z,10.60
2019-02-25T10:47:58.631Z,10.80
2019-02-25T10:50:25.538Z,10.90
2019-02-25T10:53:03.045Z,11.10
2019-02-25T10:55:23.195Z,11.30
2019-02-25T10:57:52.751Z,11.40
2019-02-25T11:00:21.221Z,11.40
2019-02-25T11:02:51.150Z,11.60
2019-02-25T11:05:19.507Z,11.70
2019-02-25T11:07:48.240Z,11.80
2019-02-25T11:10:28.902Z,11.80
2019-02-25T11:12:57.703Z,11.90
2019-02-25T11:15:26.769Z,12.10
2019-02-25T11:17:56.050Z,12.30
2019-02-25T11:20:24.240Z,12.20
2019-02-25T11:22:52.275Z,12.20
2019-02-25T11:25:21.596Z,12.30
2019-02-25T11:27:49.776Z,12.50
2019-02-25T11:30:19.356Z,12.50
2019-02-25T11:32:48.925Z,12.50
2019-02-25T11:35:16.949Z,12.60
2019-02-25T11:37:44.832Z,12.60
2019-02-25T11:40:12.720Z,12.80
2019-02-25T11:42:40.590Z,13.00
2019-02-25T11:45:08.563Z,12.90
2019-02-25T11:47:36.443Z,12.90
2019-02-25T11:50:04.322Z,13.00
2019-02-25T11:52:32.250Z,13.00
2019-02-25T11:55:00.250Z,13.00
2019-02-25T11:57:28.088Z,13.10
2019-02-25T11:59:55.944Z,13.20
2019-02-25T12:02:25.848Z,13.20
2019-02-25T12:04:53.368Z,13.40
2019-02-25T12:07:21.202Z,13.40
2019-02-25T12:09:49.076Z,13.50
2019-02-25T12:12:16.940Z,13.60
2019-02-25T12:14:44.788Z,13.40
2019-02-25T12:17:12.613Z,13.50
2019-02-25T12:19:40.489Z,13.60
2019-02-25T12:22:08.429Z,13.80
2019-02-25T12:24:36.300Z,13.90
2019-02-25T12:27:04.144Z,14.10
2019-02-25T12:29:32.040Z,14.30
2019-02-25T12:32:00.012Z,14.80
2019-02-25T12:34:28.027Z,15.20
2019-02-25T12:36:55.940Z,15.40
2019-02-25T12:39:23.808Z,16.10
2019-02-25T12:41:51.627Z,16.60
2019-02-25T12:44:19.496Z,16.60
2019-02-25T12:46:47.332Z,16.40
2019-02-25T12:49:15.207Z,16.10
2019-02-25T12:51:43.050Z,16.00
2019-02-25T12:54:10.916Z,15.80
2019-02-25T12:56:38.869Z,15.60
2019-02-25T12:59:06.784Z,15.40
2019-02-25T13:01:34.631Z,15.30
2019-02-25T13:04:02.462Z,15.30
2019-02-25T13:06:30.320Z,15.30
2019-02-25T13:08:58.297Z,15.20
2019-02-25T13:11:26.286Z,15.30
2019-02-25T13:13:54.157Z,15.30
2019-02-25T13:16:22.024Z,15.10
2019-02-25T13:18:49.904Z,15.10
2019-02-25T13:21:17.819Z,15.10
2019-02-25T13:23:45.695Z,15.10
2019-02-25T13:26:13.546Z,14.90
2019-02-25T13:28:41.413Z,15.10
2019-02-25T13:31:10.239Z,15.20
2019-02-25T13:33:38.539Z,15.40
2019-02-25T13:36:06.489Z,15.50
2019-02-25T13:38:34.410Z,15.70
2019-02-25T13:41:02.367Z,15.90
2019-02-25T13:43:30.315Z,15.90
2019-02-25T13:45:58.354Z,15.60
2019-02-25T13:48:26.280Z,15.30
2019-02-25T13:50:54.256Z,15.10
2019-02-25T13:53:22.279Z,15.00
2019-02-25T13:55:50.199Z,15.10
2019-02-25T13:58:18.166Z,16.30
2019-02-25T14:00:46.121Z,17.90
2019-02-25T14:03:14.065Z,19.10
2019-02-25T14:05:42.020Z,20.10
2019-02-25T14:08:09.860Z,21.00
2019-02-25T14:10:37.715Z,21.40
2019-02-25T14:13:05.793Z,21.70
2019-02-25T14:15:33.746Z,21.80
2019-02-25T14:18:01.673Z,22.00
2019-02-25T14:20:29.649Z,22.20
2019-02-25T14:23:00.183Z,21.70
2019-02-25T14:25:27.258Z,21.00
2019-02-25T14:27:55.463Z,19.80
2019-02-25T14:30:23.314Z,18.90
2019-02-25T14:32:53.512Z,18.00
2019-02-25T14:35:20.925Z,17.40
2019-02-25T14:37:48.772Z,16.70
2019-02-25T14:40:18.767Z,16.30
2019-02-25T14:42:51.984Z,15.80
2019-02-25T14:45:21.813Z,15.50
2019-02-25T14:47:55.441Z,15.30
2019-02-25T14:50:19.761Z,15.10
2019-02-25T14:52:47.735Z,14.90
2019-02-25T14:55:15.687Z,14.90
2019-02-25T14:57:43.926Z,14.90
2019-02-25T15:00:13.014Z,14.90
2019-02-25T15:02:41.377Z,14.80
2019-02-25T15:05:10.816Z,14.60
2019-02-25T15:07:39.745Z,14.50
2019-02-25T15:10:08.476Z,14.40
2019-02-25T15:12:37.770Z,14.30
2019-02-25T15:15:07.297Z,14.10
2019-02-25T15:17:35.895Z,14.10
2019-02-25T15:20:03.802Z,14.00
2019-02-25T15:22:32.067Z,14.00
2019-02-25T15:25:01.326Z,14.00
2019-02-25T15:27:29.293Z,13.90
2019-02-25T15:29:57.203Z,13.90
2019-02-25T15:32:25.156Z,13.80
2019-02-25T15:34:54.968Z,13.70
2019-02-25T15:37:22.738Z,13.60
2019-02-25T15:39:50.666Z,13.50
2019-02-25T15:42:18.818Z,13.60
2019-02-25T15:44:48.787Z,13.50
2019-02-25T15:47:16.335Z,13.50
2019-02-25T15:49:44.249Z,13.30
2019-02-25T15:52:14.658Z,13.30
2019-02-25T15:54:43.626Z,13.20
2019-02-25T15:57:11.843Z,13.20
2019-02-25T15:59:39.700Z,13.00
2019-02-25T16:02:09.397Z,12.80
2019-02-25T16:04:38.279Z,12.70
2019-02-25T16:07:08.400Z,12.50
2019-02-25T16:09:36.420Z,12.30
2019-02-25T16:12:05.435Z,12.00
2019-02-25T16:14:34.025Z,11.80
2019-02-25T16:17:02.005Z,11.50
2019-02-25T16:19:39.653Z,11.30
2019-02-25T16:22:00.552Z,11.10
2019-02-25T16:24:29.014Z,10.80
2019-02-25T16:26:58.388Z,10.60
2019-02-25T16:29:28.047Z,10.40
2019-02-25T16:31:59.105Z,10.30
2019-02-25T16:34:25.656Z,10.10
2019-02-25T16:36:54.187Z,9.90
2019-02-25T16:39:23.250Z,9.80
2019-02-25T16:41:51.163Z,9.60
2019-02-25T16:44:19.108Z,9.40
2019-02-25T16:46:48.969Z,9.30
2019-02-25T16:49:16.813Z,9.20
2019-02-25T16:51:44.882Z,9.10
2019-02-25T16:54:14.231Z,8.90
2019-02-25T16:56:42.843Z,8.80
2019-02-25T16:59:11.290Z,8.80
2019-02-25T17:01:41.564Z,8.70
2019-02-25T17:04:11.730Z,8.50
2019-02-25T17:06:39.264Z,8.40
2019-02-25T17:09:07.208Z,8.20
2019-02-25T17:11:35.777Z,8.20
2019-02-25T17:14:04.711Z,8.20
2019-02-25T17:16:32.687Z,8.00
2019-02-25T17:19:01.269Z,7.80
2019-02-25T17:21:29.397Z,7.70
2019-02-25T17:23:58.258Z,7.70
2019-02-25T17:26:26.926Z,7.60
2019-02-25T17:28:54.868Z,7.50
2019-02-25T17:31:22.705Z,7.40
2019-02-25T17:33:51.412Z,7.30
2019-02-25T17:36:20.234Z,7.20
2019-02-25T17:38:50.139Z,7.10
2019-02-25T17:41:18.222Z,7.00
2019-02-25T17:43:46.166Z,7.00
2019-02-25T17:46:14.562Z,6.80
2019-02-25T17:48:42.647Z,6.70
2019-02-25T17:51:10.622Z,6.70
2019-02-25T17:53:38.542Z,6.60
2019-02-25T17:56:06.492Z,6.50
2019-02-25T17:58:35.963Z,6.40
2019-02-25T18:01:05.720Z,6.40
2019-02-25T18:03:33.820Z,6.30
2019-02-25T18:06:03.463Z,6.20
2019-02-25T18:08:32.224Z,6.20
2019-02-25T18:11:00.996Z,6.10
2019-02-25T18:13:30.731Z,6.00
2019-02-25T18:15:58.783Z,5.80
2019-02-25T18:18:26.706Z,5.60
2019-02-25T18:20:54.622Z,5.50
2019-02-25T18:23:22.656Z,5.60
2019-02-25T18:25:50.614Z,5.50
2019-02-25T18:28:20.021Z,5.50
2019-02-25T18:30:48.318Z,5.40
2019-02-25T18:33:17.404Z,5.30
2019-02-25T18:35:46.293Z,5.20
2019-02-25T18:38:14.403Z,5.10
2019-02-25T18:40:44.097Z,5.00
2019-02-25T18:43:11.971Z,4.90
2019-02-25T18:45:41.077Z,4.80
2019-02-25T18:48:09.512Z,4.80
2019-02-25T18:50:39.248Z,4.70
2019-02-25T18:53:07.297Z,4.70
2019-02-25T18:55:35.559Z,4.70
2019-02-25T18:58:05.103Z,4.70
2019-02-25T19:00:34.519Z,4.50
2019-02-25T19:03:04.240Z,4.50
2019-02-25T19:05:32.205Z,4.50
2019-02-25T19:08:00.097Z,4.40
2019-02-25T19:10:28.018Z,4.30
2019-02-25T19:12:56.360Z,4.30
2019-02-25T19:15:25.657Z,4.30
2019-02-25T19:17:54.396Z,4.20
2019-02-25T19:20:22.495Z,4.20
2019-02-25T19:22:50.472Z,4.10
2019-02-25T19:25:20.884Z,4.10
2019-02-25T19:27:49.610Z,3.90
2019-02-25T19:30:19.745Z,3.90
2019-02-25T19:32:47.404Z,3.80
2019-02-25T19:35:15.449Z,3.70
2019-02-25T19:37:44.514Z,3.70
2019-02-25T19:40:14.935Z,3.60
2019-02-25T19:42:47.311Z,3.60
2019-02-25T19:45:13.350Z,3.50
2019-02-25T19:47:43.319Z,3.50
2019-02-25T19:50:11.602Z,3.50
2019-02-25T19:52:41.862Z,3.40
2019-02-25T19:55:10.529Z,3.40
2019-02-25T19:57:39.049Z,3.40
2019-02-25T20:00:06.936Z,3.30
2019-02-25T20:02:36.930Z,3.20
2019-02-25T20:05:07.524Z,3.20
2019-02-25T20:07:35.860Z,3.10
2019-02-25T20:10:04.149Z,3.10
2019-02-25T20:12:35.163Z,3.00
2019-02-25T20:15:01.763Z,3.00
2019-02-25T20:17:30.985Z,2.90
2019-02-25T20:19:59.335Z,2.90
2019-02-25T20:22:27.221Z,2.80
2019-02-25T20:24:55.781Z,2.90
2019-02-25T20:27:24.749Z,2.90
2019-02-25T20:29:52.880Z,2.80
2019-02-25T20:32:20.806Z,2.70
2019-02-25T20:34:50.569Z,2.70
2019-02-25T20:37:19.000Z,2.70
2019-02-25T20:39:48.126Z,2.60
2019-02-25T20:42:20.937Z,2.70
2019-02-25T20:44:46.731Z,2.60
2019-02-25T20:47:15.295Z,2.50
2019-02-25T20:49:43.231Z,2.50
2019-02-25T20:52:11.715Z,2.40
2019-02-25T20:54:43.217Z,2.40
2019-02-25T20:57:12.131Z,2.30
2019-02-25T20:59:40.103Z,2.30
2019-02-25T21:02:13.745Z,2.20
2019-02-25T21:04:38.675Z,2.20
2019-02-25T21:07:08.862Z,2.20
2019-02-25T21:09:37.912Z,2.10
2019-02-25T21:12:08.176Z,2.10
2019-02-25T21:14:37.982Z,2.00
2019-02-25T21:17:06.289Z,2.00
2019-02-25T21:19:36.266Z,2.00
2019-02-25T21:22:04.471Z,2.00
2019-02-25T21:24:35.326Z,2.00
2019-02-25T21:27:03.691Z,2.00
2019-02-25T21:29:34.854Z,1.90
2019-02-25T21:32:02.960Z,1.80
2019-02-25T21:34:32.845Z,1.80
2019-02-25T21:37:02.898Z,1.70
2019-02-25T21:39:31.935Z,1.70
2019-02-25T21:42:01.023Z,1.70
2019-02-25T21:44:31.456Z,1.70
2019-02-25T21:47:00.898Z,1.70
2019-02-25T21:49:29.712Z,1.70
2019-02-25T21:52:00.254Z,1.60
2019-02-25T21:54:28.279Z,1.50
2019-02-25T21:56:56.456Z,1.50
2019-02-25T21:59:24.357Z,1.40
2019-02-25T22:01:52.945Z,1.40
2019-02-25T22:04:22.507Z,1.30
2019-02-25T22:06:53.389Z,1.30
2019-02-25T22:09:35.483Z,1.30
2019-02-25T22:11:50.700Z,1.20
2019-02-25T22:14:20.868Z,1.20
2019-02-25T22:16:50.450Z,1.20
2019-02-25T22:19:18.792Z,1.20
2019-02-25T22:21:51.444Z,1.20
2019-02-25T22:24:17.246Z,1.10
2019-02-25T22:26:45.146Z,1.10
2019-02-25T22:29:13.006Z,1.00
2019-02-25T22:31:41.942Z,1.10
2019-02-25T22:34:12.664Z,1.10
2019-02-25T22:36:43.732Z,1.00
2019-02-25T22:39:10.074Z,0.90
2019-02-25T22:41:38.059Z,0.90
2019-02-25T22:44:06.798Z,0.80
2019-02-25T22:46:37.401Z,0.80
2019-02-25T22:49:07.099Z,0.80
2019-02-25T22:51:35.356Z,0.80
2019-02-25T22:54:06.195Z,0.80
2019-02-25T22:56:34.090Z,0.80
2019-02-25T22:59:02.780Z,0.70
2019-02-25T23:01:31.645Z,0.70
2019-02-25T23:03:59.508Z,0.70
2019-02-25T23:06:27.399Z,0.70
2019-02-25T23:08:56.364Z,0.70
2019-02-25T23:11:26.026Z,0.60
2019-02-25T23:13:54.815Z,0.60
2019-02-25T23:16:25.412Z,0.50
2019-02-25T23:18:52.430Z,0.50
2019-02-25T23:21:23.945Z,0.50
2019-02-25T23:23:53.432Z,0.50
2019-02-25T23:26:21.550Z,0.50
2019-02-25T23:28:50.961Z,0.40
2019-02-25T23:31:18.803Z,0.30
2019-02-25T23:33:48.874Z,0.30
2019-02-25T23:36:17.539Z,0.30
2019-02-25T23:38:46.026Z,0.30
2019-02-25T23:41:14.518Z,0.30
2019-02-25T23:43:44.528Z,0.30
2019-02-25T23:46:13.134Z,0.30
2019-02-25T23:48:43.444Z,0.20
2019-02-25T23:51:12.045Z,0.20
2019-02-25T23:53:40.250Z,0.20
2019-02-25T23:56:08.100Z,0.20
2019-02-25T23:58:38.359Z,0.20
